Time;durP1;ratioP1;P1;durP2;ratioP2;P2;SDS_P1;SDS_P2;PMS_P1;PMS_P2;Temp;Humidity;BMP_temperature;BMP_pressure;BME280_temperature;BME280_humidity;BME280_pressure;Samples;Min_cycle;Max_cycle;Signal;HPM_P1;HPM_P2
2023/04/16 00:00:13;;;;;;;21.17;16.30;;;;;;;7.23;100.00;102265.34;4981534;28;20198;-75
2023/04/16 00:02:39;;;;;;;23.37;17.67;;;;;;;7.22;100.00;102257.47;4966002;28;20193;-75
2023/04/16 00:05:05;;;;;;;22.20;17.50;;;;;;;6.70;100.00;102139.59;4981419;28;20193;-75
2023/04/16 00:07:30;;;;;;;23.23;16.97;;;;;;;5.38;100.00;101930.47;4984001;28;20190;-75
2023/04/16 00:09:56;;;;;;;20.97;16.73;;;;;;;6.00;100.00;102075.75;4965235;28;20459;-75
2023/04/16 00:12:22;;;;;;;20.43;17.37;;;;;;;5.48;100.00;102003.19;4983530;28;20179;-75
2023/04/16 00:14:48;;;;;;;20.53;16.37;;;;;;;6.00;100.00;102073.09;4982440;28;20588;-74
2023/04/16 00:17:13;;;;;;;23.77;17.17;;;;;;;7.29;100.00;102255.06;4983531;28;20426;-74
2023/04/16 00:19:39;;;;;;;20.80;16.87;;;;;;;7.59;100.00;102313.63;4982221;28;20213;-74
2023/04/16 00:22:04;;;;;;;22.77;16.30;;;;;;;6.40;100.00;102160.06;4965308;28;20351;-74
2023/04/16 00:24:30;;;;;;;21.10;17.07;;;;;;;7.25;100.00;102267.84;4982653;28;20182;-75
2023/04/16 00:26:55;;;;;;;20.30;17.13;;;;;;;7.12;100.00;102257.50;4981594;28;20261;-75
2023/04/16 00:29:21;;;;;;;20.63;17.10;;;;;;;7.49;100.00;102307.44;4981085;28;20202;-74
2023/04/16 00:31:46;;;;;;;22.60;17.63;;;;;;;6.54;100.00;102174.81;4983518;28;20641;-75
2023/04/16 00:34:12;;;;;;;20.97;16.83;;;;;;;7.43;100.00;102311.56;4982075;28;20206;-75
2023/04/16 00:36:37;;;;;;;23.40;18.63;;;;;;;6.93;100.00;102223.66;4981998;28;20216;-74
2023/04/16 00:39:03;;;;;;;20.83;16.87;;;;;;;7.48;100.00;102316.44;4982539;28;20585;-74
2023/04/16 00:41:29;;;;;;;21.90;17.90;;;;;;;6.95;100.00;102240.34;4982206;28;20178;-74
2023/04/16 00:43:54;;;;;;;22.00;18.77;;;;;;;7.06;100.00;102206.50;4981760;28;20784;-74
2023/04/16 00:46:22;;;;;;;23.90;18.80;;;;;;;7.13;100.00;102234.31;4982093;28;20202;-74
2023/04/16 00:48:48;;;;;;;23.47;18.27;;;;;;;4.89;100.00;101906.47;4981529;28;20202;-74
2023/04/16 00:51:14;;;;;;;23.60;18.33;;;;;;;5.99;100.00;102089.19;4982265;28;20433;-76
2023/04/16 00:53:40;;;;;;;21.77;17.93;;;;;;;5.66;100.00;102000.69;4981904;28;21112;-75
2023/04/16 00:56:06;;;;;;;23.07;19.03;;;;;;;7.29;100.00;102337.81;4983125;28;20529;-74
2023/04/16 00:58:35;;;;;;;21.60;17.50;;;;;;;5.07;100.00;101954.50;4984103;28;21175;-74
2023/04/16 01:01:01;;;;;;;24.57;19.60;;;;;;;7.49;100.00;102323.47;4982056;28;20475;-74
2023/04/16 01:03:37;;;;;;;19.13;17.03;;;;;;;5.35;100.00;102007.91;4982311;28;20495;-74
2023/04/16 01:06:02;;;;;;;20.33;18.23;;;;;;;5.06;100.00;101930.69;4982033;28;20453;-74
2023/04/16 01:08:28;;;;;;;21.97;18.47;;;;;;;5.35;100.00;101986.63;4982266;28;20999;-73
2023/04/16 01:10:54;;;;;;;24.27;18.40;;;;;;;7.59;100.00;102344.84;4964730;28;20252;-74
2023/04/16 01:13:19;;;;;;;22.60;19.60;;;;;;;7.22;100.00;102287.66;4981364;28;20182;-74
2023/04/16 01:15:45;;;;;;;25.60;18.60;;;;;;;6.17;100.00;102110.69;4982181;28;20185;-74
2023/04/16 01:18:18;;;;;;;21.30;18.77;;;;;;;6.27;100.00;102124.84;4982910;28;20206;-74
2023/04/16 01:20:45;;;;;;;27.93;19.97;;;;;;;6.19;100.00;102114.91;4982362;28;20178;-74
2023/04/16 01:23:11;;;;;;;21.40;18.20;;;;;;;7.26;100.00;102280.22;4980735;28;20463;-74
2023/04/16 01:25:37;;;;;;;21.10;18.77;;;;;;;7.48;100.00;102332.47;4982209;28;20808;-74
2023/04/16 01:28:02;;;;;;;22.23;18.83;;;;;;;7.13;100.00;102285.00;4981526;28;20182;-74
2023/04/16 01:30:28;;;;;;;22.73;18.43;;;;;;;7.09;100.00;102295.13;4982447;28;20920;-74
2023/04/16 01:32:53;;;;;;;22.50;19.10;;;;;;;5.23;100.00;101969.94;4981845;28;20292;-74
2023/04/16 01:35:19;;;;;;;22.50;19.10;;;;;;;6.07;100.00;102084.03;4980654;28;20233;-74
2023/04/16 01:37:45;;;;;;;21.47;17.63;;;;;;;7.27;100.00;102321.13;4981930;28;20194;-75
2023/04/16 01:40:10;;;;;;;23.23;18.80;;;;;;;5.49;100.00;101999.53;4980157;28;20195;-74
2023/04/16 01:42:37;;;;;;;25.33;17.80;;;;;;;6.22;100.00;102141.25;4981820;28;20190;-74
2023/04/16 01:45:03;;;;;;;28.17;18.10;;;;;;;6.00;100.00;102129.03;4981336;28;20554;-74
2023/04/16 01:47:29;;;;;;;20.77;18.30;;;;;;;5.69;100.00;102044.84;4964648;28;20472;-74
2023/04/16 01:49:54;;;;;;;21.27;17.50;;;;;;;6.64;100.00;102194.31;4963394;28;20453;-74
2023/04/16 01:52:20;;;;;;;20.37;15.80;;;;;;;7.56;100.00;102355.81;4963284;28;20217;-74
2023/04/16 01:54:46;;;;;;;20.03;17.47;;;;;;;6.20;100.00;102151.22;4980568;28;20202;-74
2023/04/16 01:57:11;;;;;;;21.13;17.00;;;;;;;6.09;100.00;102138.84;4982206;28;20193;-74
2023/04/16 01:59:37;;;;;;;24.37;17.67;;;;;;;6.44;100.00;102189.94;4981128;28;20229;-74
2023/04/16 02:02:11;;;;;;;23.10;17.73;;;;;;;5.92;100.00;102118.16;4980841;28;20189;-74
2023/04/16 02:04:40;;;;;;;21.23;17.00;;;;;;;6.29;100.00;102176.19;4964879;28;20174;-75
2023/04/16 02:07:07;;;;;;;23.20;18.27;;;;;;;6.25;100.00;102108.16;4981275;28;20424;-75
2023/04/16 02:09:39;;;;;;;19.83;17.33;;;;;;;5.42;100.00;102023.22;4981259;28;20452;-75
2023/04/16 02:12:06;;;;;;;24.33;17.83;;;;;;;7.48;100.00;102349.31;4980694;28;20430;-74
2023/04/16 02:14:32;;;;;;;21.23;16.70;;;;;;;5.39;100.00;101998.69;4980280;28;20564;-75
2023/04/16 02:16:58;;;;;;;18.03;14.87;;;;;;;5.30;100.00;101994.19;4963581;28;20496;-75
2023/04/16 02:19:23;;;;;;;21.33;15.87;;;;;;;4.98;100.00;101968.63;4980575;28;20454;-75
2023/04/16 02:21:52;;;;;;;18.87;16.57;;;;;;;6.47;100.00;102190.50;4981101;28;20224;-75
2023/04/16 02:24:18;;;;;;;21.93;17.10;;;;;;;4.86;100.00;101959.03;4982301;28;20648;-75
2023/04/16 02:26:46;;;;;;;22.17;17.90;;;;;;;6.64;100.00;102250.31;4961867;28;20468;-75
2023/04/16 02:29:12;;;;;;;19.30;17.20;;;;;;;5.46;100.00;102060.19;4980990;28;20311;-75
2023/04/16 02:31:38;;;;;;;19.43;16.13;;;;;;;6.02;100.00;102148.38;4981193;28;20927;-75
2023/04/16 02:34:04;;;;;;;20.87;17.27;;;;;;;5.48;100.00;102066.22;4980052;28;20555;-75
2023/04/16 02:36:30;;;;;;;20.03;17.23;;;;;;;6.34;100.00;102229.91;4963112;28;20661;-75
2023/04/16 02:38:56;;;;;;;18.60;16.40;;;;;;;6.12;100.00;102188.34;4982336;28;20718;-75
2023/04/16 02:41:21;;;;;;;18.80;16.53;;;;;;;5.93;100.00;102156.28;4979894;28;20426;-74
2023/04/16 02:43:47;;;;;;;21.93;16.43;;;;;;;7.16;100.00;102354.94;4979097;28;20193;-75
2023/04/16 02:46:12;;;;;;;18.50;15.83;;;;;;;6.18;100.00;102217.09;4980982;28;20186;-75
2023/04/16 02:48:38;;;;;;;18.43;15.33;;;;;;;6.01;100.00;102181.31;4980478;28;20198;-74
2023/04/16 02:51:04;;;;;;;18.87;16.03;;;;;;;5.08;100.00;102006.72;4980584;28;20262;-74
2023/04/16 02:53:29;;;;;;;18.87;16.33;;;;;;;4.97;100.00;101978.38;4979995;28;20190;-74
2023/04/16 02:55:55;;;;;;;19.47;15.97;;;;;;;5.93;100.00;102133.22;4980090;28;20186;-75
2023/04/16 02:58:22;;;;;;;19.63;14.80;;;;;;;6.33;100.00;102196.22;4980425;28;20225;-75
2023/04/16 03:00:48;;;;;;;18.00;14.80;;;;;;;5.25;100.00;102017.69;4979765;28;20680;-75
2023/04/16 03:03:14;;;;;;;16.77;14.10;;;;;;;5.50;100.00;102080.25;4980669;28;20436;-76
2023/04/16 03:05:39;;;;;;;18.20;15.00;;;;;;;6.37;100.00;102224.31;4979362;28;20224;-75
2023/04/16 03:08:05;;;;;;;16.30;14.60;;;;;;;6.69;100.00;102247.22;4981306;28;20201;-74
2023/04/16 03:10:31;;;;;;;19.40;14.73;;;;;;;5.34;100.00;102041.66;4980570;28;20212;-74
2023/04/16 03:12:57;;;;;;;17.13;15.33;;;;;;;7.20;100.00;102364.38;4963251;28;20193;-75
2023/04/16 03:15:22;;;;;;;18.47;15.37;;;;;;;5.98;100.00;102183.41;4961554;28;20222;-74
2023/04/16 03:17:48;;;;;;;16.17;14.43;;;;;;;5.43;100.00;102094.06;4961168;28;20194;-74
2023/04/16 03:20:15;;;;;;;19.33;15.07;;;;;;;5.00;100.00;101977.28;4978515;28;20426;-74
2023/04/16 03:22:41;;;;;;;16.73;14.87;;;;;;;5.77;100.00;102135.53;4981123;28;20532;-75
2023/04/16 03:25:07;;;;;;;16.20;14.00;;;;;;;5.09;100.00;102005.75;4980187;28;20479;-74
2023/04/16 03:27:33;;;;;;;19.03;14.77;;;;;;;5.85;100.00;102133.03;4962609;28;20731;-75
2023/04/16 03:29:59;;;;;;;19.43;16.17;;;;;;;4.87;100.00;101974.03;4981488;28;20289;-75
2023/04/16 03:32:24;;;;;;;18.53;14.93;;;;;;;6.29;100.00;102238.31;4963332;28;20186;-75
2023/04/16 03:34:50;;;;;;;20.17;15.43;;;;;;;5.28;100.00;102036.03;4979225;28;20462;-74
2023/04/16 03:37:15;;;;;;;17.03;14.03;;;;;;;5.96;100.00;102175.56;4980027;28;20190;-75
2023/04/16 03:39:41;;;;;;;15.77;14.07;;;;;;;5.54;100.00;102079.81;4980405;28;20278;-75
2023/04/16 03:42:06;;;;;;;18.07;15.37;;;;;;;5.77;100.00;102140.84;4979926;28;20527;-75
2023/04/16 03:44:32;;;;;;;18.70;15.90;;;;;;;6.13;100.00;102191.84;4979679;28;20645;-74
2023/04/16 03:46:57;;;;;;;17.90;14.90;;;;;;;5.72;100.00;102116.44;4961297;28;20190;-75
2023/04/16 03:49:23;;;;;;;16.80;14.57;;;;;;;6.07;100.00;102183.41;4979668;28;20210;-75
2023/04/16 03:51:48;;;;;;;19.70;15.93;;;;;;;6.17;100.00;102178.13;4978055;28;20201;-74
2023/04/16 03:54:14;;;;;;;21.03;15.30;;;;;;;5.88;100.00;102133.59;4980131;28;20410;-74
2023/04/16 03:56:40;;;;;;;18.60;14.37;;;;;;;5.76;100.00;102155.97;4961196;28;20264;-74
2023/04/16 03:59:06;;;;;;;18.23;14.50;;;;;;;7.46;100.00;102399.38;5009627;23;20260;-70
2023/04/16 04:01:31;;;;;;;19.53;15.93;;;;;;;7.42;100.00;102405.94;4981152;28;20500;-69
2023/04/16 04:03:57;;;;;;;18.37;15.40;;;;;;;7.45;100.00;102383.47;4982347;28;20279;-70
2023/04/16 04:06:22;;;;;;;15.63;13.50;;;;;;;7.37;100.00;102383.34;4984938;28;20205;-70
2023/04/16 04:08:47;;;;;;;19.17;15.33;;;;;;;7.43;100.00;102386.31;4968353;28;20207;-69
2023/04/16 04:11:13;;;;;;;15.97;14.20;;;;;;;7.41;100.00;102390.94;4983939;28;20237;-69
2023/04/16 04:13:38;;;;;;;15.77;13.97;;;;;;;7.67;100.00;102395.72;4982945;28;20217;-70
2023/04/16 04:16:05;;;;;;;18.43;14.87;;;;;;;7.23;100.00;102353.41;4983444;28;20200;-70
2023/04/16 04:18:30;;;;;;;17.50;15.57;;;;;;;7.49;100.00;102395.56;4984255;28;20210;-70
2023/04/16 04:20:56;;;;;;;20.60;15.23;;;;;;;7.58;100.00;102401.88;4966260;28;20974;-70
2023/04/16 04:23:22;;;;;;;19.47;17.00;;;;;;;7.36;100.00;102400.34;4983579;28;20189;-70
2023/04/16 04:25:47;;;;;;;17.77;14.40;;;;;;;7.31;100.00;102354.53;4983214;28;20972;-70
2023/04/16 04:28:13;;;;;;;17.37;15.03;;;;;;;7.29;100.00;102365.38;4967028;28;20648;-70
2023/04/16 04:30:38;;;;;;;17.17;15.40;;;;;;;7.50;100.00;102397.25;4983098;28;20194;-70
2023/04/16 04:33:03;;;;;;;19.33;16.30;;;;;;;7.67;100.00;102409.06;4983634;28;20198;-70
2023/04/16 04:35:29;;;;;;;18.53;15.73;;;;;;;7.83;100.00;102406.66;4982328;28;20294;-69
2023/04/16 04:37:54;;;;;;;18.30;14.90;;;;;;;7.63;100.00;102391.63;4983547;28;20216;-70
2023/04/16 04:40:20;;;;;;;17.63;14.93;;;;;;;7.83;100.00;102403.13;4983939;28;20210;-70
2023/04/16 04:42:45;;;;;;;17.90;14.37;;;;;;;7.69;100.00;102389.25;4983900;28;20182;-70
2023/04/16 04:45:11;;;;;;;17.70;14.23;;;;;;;7.55;100.00;102380.78;4983739;28;20657;-70
2023/04/16 04:47:36;;;;;;;17.20;14.40;;;;;;;7.31;100.00;102346.53;4983078;28;20197;-70
2023/04/16 04:50:02;;;;;;;17.87;15.10;;;;;;;7.66;100.00;102416.22;4982932;28;20272;-70
2023/04/16 04:52:27;;;;;;;18.90;16.53;;;;;;;7.45;100.00;102362.97;4980953;28;20186;-70
2023/04/16 04:54:52;;;;;;;15.03;13.17;;;;;;;7.69;100.00;102412.41;4982990;28;20657;-70
2023/04/16 04:57:18;;;;;;;18.43;15.33;;;;;;;7.69;100.00;102407.06;4983104;28;20195;-69
2023/04/16 04:59:43;;;;;;;16.90;15.00;;;;;;;7.46;100.00;102383.34;4985556;28;20209;-70
2023/04/16 05:02:09;;;;;;;17.60;14.73;;;;;;;7.68;100.00;102394.72;4982972;28;20247;-70
2023/04/16 05:04:34;;;;;;;17.20;15.23;;;;;;;7.60;100.00;102413.28;4982723;28;20185;-70
2023/04/16 05:07:01;;;;;;;17.47;15.50;;;;;;;7.89;100.00;102414.09;4983910;28;20601;-70
2023/04/16 05:09:26;;;;;;;18.10;15.30;;;;;;;7.77;100.00;102419.72;4983674;28;20210;-69
2023/04/16 05:11:52;;;;;;;19.03;16.40;;;;;;;7.98;100.00;102406.19;4982064;28;20428;-70
2023/04/16 05:14:17;;;;;;;20.10;15.37;;;;;;;7.80;100.00;102374.03;4982091;28;20810;-70
2023/04/16 05:16:42;;;;;;;17.97;15.33;;;;;;;7.86;100.00;102410.88;4983147;28;20696;-70
2023/04/16 05:19:08;;;;;;;18.80;15.27;;;;;;;7.99;100.00;102419.44;4982226;28;20214;-70
2023/04/16 05:21:33;;;;;;;17.20;14.47;;;;;;;7.83;100.00;102421.84;4983394;28;20186;-70
2023/04/16 05:23:59;;;;;;;18.03;15.00;;;;;;;7.85;100.00;102415.38;4982607;28;20225;-70
2023/04/16 05:26:24;;;;;;;17.77;15.60;;;;;;;7.61;100.00;102389.09;4982003;28;20194;-70
2023/04/16 05:28:50;;;;;;;19.37;15.33;;;;;;;7.78;100.00;102405.38;4982862;28;20214;-70
2023/04/16 05:31:15;;;;;;;16.87;14.40;;;;;;;7.86;100.00;102421.53;4982833;28;20187;-70
2023/04/16 05:33:40;;;;;;;20.83;14.80;;;;;;;7.81;100.00;102431.81;4982520;28;20249;-70
2023/04/16 05:36:06;;;;;;;18.33;14.43;;;;;;;7.74;100.00;102390.63;4983100;28;20190;-70
2023/04/16 05:38:31;;;;;;;16.90;14.13;;;;;;;7.91;100.00;102419.31;4982819;28;20213;-70
2023/04/16 05:40:57;;;;;;;17.40;14.17;;;;;;;7.90;100.00;102429.16;4982689;28;20194;-70
2023/04/16 05:43:23;;;;;;;15.57;13.97;;;;;;;7.87;100.00;102410.72;4982972;28;20840;-70
2023/04/16 05:45:48;;;;;;;17.10;14.33;;;;;;;7.77;100.00;102409.03;4981316;28;20429;-69
2023/04/16 05:48:14;;;;;;;15.63;13.63;;;;;;;8.06;100.00;102438.41;4981700;28;20182;-69
2023/04/16 05:50:39;;;;;;;16.50;13.60;;;;;;;7.74;100.00;102393.31;4982238;28;20190;-70
2023/04/16 05:53:07;;;;;;;17.20;15.30;;;;;;;8.07;100.00;102429.38;4982268;28;20190;-69
2023/04/16 05:55:33;;;;;;;16.93;14.27;;;;;;;7.86;100.00;102411.69;4981091;28;20273;-70
2023/04/16 05:57:58;;;;;;;15.17;13.23;;;;;;;7.90;100.00;102385.56;4981228;28;21188;-70
2023/04/16 06:00:24;;;;;;;16.23;14.43;;;;;;;8.10;100.00;102454.03;4981635;28;20241;-69
2023/04/16 06:02:50;;;;;;;16.00;13.00;;;;;;;8.14;100.00;102442.03;4982265;28;20197;-70
2023/04/16 06:05:15;;;;;;;15.73;13.13;;;;;;;8.09;100.00;102422.91;4980364;28;20182;-70
2023/04/16 06:07:41;;;;;;;19.23;12.63;;;;;;;8.03;100.00;102418.16;4967204;28;20425;-70
2023/04/16 06:10:07;;;;;;;17.13;14.20;;;;;;;8.44;100.00;102445.50;4981895;28;20719;-69
2023/04/16 06:12:32;;;;;;;15.70;12.67;;;;;;;8.36;100.00;102448.03;4980894;28;20554;-70
2023/04/16 06:14:59;;;;;;;17.20;13.63;;;;;;;8.19;100.00;102420.25;4981986;28;20531;-70
2023/04/16 06:17:24;;;;;;;15.60;13.10;;;;;;;8.04;100.00;102408.28;4982967;28;20200;-69
2023/04/16 06:19:49;;;;;;;15.90;14.20;;;;;;;7.80;100.00;102398.06;4982032;28;20452;-70
2023/04/16 06:22:15;;;;;;;15.80;13.47;;;;;;;8.38;100.00;102444.25;4981954;28;20196;-70
2023/04/16 06:24:40;;;;;;;15.57;13.97;;;;;;;8.49;100.00;102455.78;4982416;28;20299;-70
2023/04/16 06:27:06;;;;;;;17.40;13.27;;;;;;;8.69;100.00;102461.91;4981029;28;20186;-70
2023/04/16 06:29:31;;;;;;;17.07;13.60;;;;;;;8.64;100.00;102465.00;4981020;28;20205;-69
2023/04/16 06:31:57;;;;;;;15.37;13.67;;;;;;;8.70;100.00;102458.25;4982284;28;20660;-70
2023/04/16 06:34:22;;;;;;;15.03;13.10;;;;;;;8.36;100.00;102410.59;4980550;28;20237;-70
2023/04/16 06:36:48;;;;;;;17.80;14.83;;;;;;;8.74;100.00;102462.31;4981548;28;20193;-70
2023/04/16 06:39:13;;;;;;;14.87;13.20;;;;;;;8.72;100.00;102462.47;4981268;28;20202;-69
2023/04/16 06:41:39;;;;;;;19.50;14.40;;;;;;;8.76;100.00;102457.66;4982745;28;20241;-69
2023/04/16 06:44:04;;;;;;;16.23;13.60;;;;;;;8.60;100.00;102434.22;4979963;28;20186;-69
2023/04/16 06:46:30;;;;;;;15.23;12.83;;;;;;;8.85;100.00;102478.16;4981364;28;20193;-70
2023/04/16 06:48:56;;;;;;;17.97;16.00;;;;;;;8.88;100.00;102475.22;4981129;28;20205;-69
2023/04/16 06:51:21;;;;;;;16.33;14.63;;;;;;;8.98;100.00;102485.88;4980570;28;20530;-70
2023/04/16 06:53:47;;;;;;;15.83;13.67;;;;;;;8.96;100.00;102477.13;4980193;28;20253;-70
2023/04/16 06:56:13;;;;;;;16.50;13.90;;;;;;;8.65;100.00;102429.28;4980747;28;20189;-70
2023/04/16 06:58:38;;;;;;;16.30;13.67;;;;;;;9.01;100.00;102491.75;4981690;28;20947;-71
2023/04/16 07:01:04;;;;;;;16.37;13.60;;;;;;;8.99;100.00;102475.00;4980615;28;20194;-70
2023/04/16 07:03:30;;;;;;;15.83;13.03;;;;;;;8.83;100.00;102448.91;4980850;28;20234;-70
2023/04/16 07:05:55;;;;;;;16.80;13.93;;;;;;;9.17;100.00;102493.81;4980508;28;20177;-70
2023/04/16 07:08:21;;;;;;;17.43;14.10;;;;;;;9.09;100.00;102466.94;4980575;28;20272;-70
2023/04/16 07:10:46;;;;;;;19.57;14.07;;;;;;;8.90;100.00;102446.47;4980703;28;20221;-70
2023/04/16 07:13:12;;;;;;;14.67;13.07;;;;;;;9.33;100.00;102493.16;4981398;28;20277;-70
2023/04/16 07:15:37;;;;;;;15.63;12.63;;;;;;;9.11;100.00;102451.56;4982155;28;20202;-70
2023/04/16 07:18:03;;;;;;;16.80;13.60;;;;;;;9.39;100.00;102494.38;4981030;28;20563;-70
2023/04/16 07:20:28;;;;;;;13.53;12.13;;;;;;;8.48;100.00;102344.47;4981253;28;20703;-70
2023/04/16 07:22:54;;;;;;;15.20;12.47;;;;;;;9.47;100.00;102492.63;4980365;28;20187;-69
2023/04/16 07:25:19;;;;;;;17.67;12.90;;;;;;;9.22;100.00;102456.69;4976472;28;20182;-70
2023/04/16 07:27:44;;;;;;;16.27;13.43;;;;;;;9.19;100.00;102440.94;4981442;28;20562;-70
2023/04/16 07:30:10;;;;;;;14.23;12.50;;;;;;;9.48;100.00;102497.00;4979663;28;20720;-70
2023/04/16 07:32:36;;;;;;;17.10;13.20;;;;;;;9.50;100.00;102491.50;4981521;28;21135;-71
2023/04/16 07:35:02;;;;;;;15.40;12.10;;;;;;;9.49;100.00;102497.84;4980578;28;20216;-70
2023/04/16 07:37:28;;;;;;;18.07;13.20;;;;;;;9.56;100.00;102492.72;4980344;28;20216;-70
2023/04/16 07:39:56;;;;;;;18.70;14.07;;;;;;;9.55;100.00;102502.59;4985400;28;20436;-70
2023/04/16 07:42:21;;;;;;;16.80;13.00;;;;;;;9.43;100.00;102472.53;4965364;28;20276;-70
2023/04/16 07:44:47;;;;;;;18.20;13.23;;;;;;;9.31;100.00;102454.97;4982946;28;20439;-69
2023/04/16 07:47:12;;;;;;;15.80;13.13;;;;;;;9.18;100.00;102441.09;4984517;28;20277;-69
2023/04/16 07:49:38;;;;;;;19.00;13.40;;;;;;;9.32;100.00;102450.47;4986888;28;20217;-70
2023/04/16 07:52:03;;;;;;;14.20;12.50;;;;;;;9.15;100.00;102433.38;4982611;28;20190;-70
2023/04/16 07:54:30;;;;;;;18.40;12.80;;;;;;;9.34;100.00;102454.66;4983574;28;20711;-70
2023/04/16 07:56:55;;;;;;;17.77;13.20;;;;;;;9.64;100.00;102496.34;4983887;28;20444;-70
2023/04/16 07:59:21;;;;;;;15.37;11.20;;;;;;;9.77;100.00;102508.50;4983897;28;20281;-70
2023/04/16 08:01:46;;;;;;;16.73;11.80;;;;;;;9.32;100.00;102435.25;4984134;28;20197;-70
2023/04/16 08:04:12;;;;;;;13.90;12.07;;;;;;;9.56;100.00;102463.25;4982823;28;20283;-69
2023/04/16 08:06:38;;;;;;;15.20;12.00;;;;;;;9.92;100.00;102518.56;4967839;28;20269;-70
2023/04/16 08:09:03;;;;;;;13.60;11.40;;;;;;;9.93;100.00;102512.19;4985328;28;20943;-69
2023/04/16 08:11:29;;;;;;;18.97;12.33;;;;;;;9.97;100.00;102515.41;4984451;28;20232;-70
2023/04/16 08:13:54;;;;;;;15.40;11.40;;;;;;;9.78;100.00;102480.69;4985056;28;20206;-70
2023/04/16 08:16:20;;;;;;;13.07;11.30;;;;;;;10.09;100.00;102516.00;4984650;28;20261;-70
2023/04/16 08:18:45;;;;;;;14.60;11.37;;;;;;;9.85;100.00;102466.53;4984904;28;20215;-70
2023/04/16 08:21:11;;;;;;;14.30;12.00;;;;;;;10.21;100.00;102520.13;4984415;28;20232;-69
2023/04/16 08:23:36;;;;;;;14.13;11.37;;;;;;;10.20;100.00;102510.41;4983552;28;20608;-70
2023/04/16 08:26:02;;;;;;;14.60;11.60;;;;;;;10.21;100.00;102506.72;4982100;28;20671;-70
2023/04/16 08:28:28;;;;;;;13.83;11.67;;;;;;;10.26;100.00;102515.13;4983963;28;20455;-70
2023/04/16 08:30:53;;;;;;;14.50;11.67;;;;;;;10.03;100.00;102469.19;4983624;28;20269;-70
2023/04/16 08:33:18;;;;;;;14.63;12.50;;;;;;;10.28;100.00;102518.53;4966030;28;20643;-70
2023/04/16 08:35:44;;;;;;;16.27;12.40;;;;;;;10.01;100.00;102473.03;4982643;28;20206;-70
2023/04/16 08:38:09;;;;;;;15.63;13.00;;;;;;;10.12;100.00;102495.06;4983559;28;20186;-70
2023/04/16 08:40:38;;;;;;;17.33;11.93;;;;;;;10.16;100.00;102499.16;4983383;28;20563;-72
2023/04/16 08:43:08;;;;;;;17.53;10.90;;;;;;;10.39;100.00;102520.97;4983609;28;20225;-70
2023/04/16 08:45:35;;;;;;;14.97;12.73;;;;;;;10.35;100.00;102521.44;4982533;28;20429;-70
2023/04/16 08:48:03;;;;;;;15.87;11.67;;;;;;;10.37;100.00;102530.19;4966488;28;20982;-70
2023/04/16 08:50:31;;;;;;;15.93;12.77;;;;;;;10.37;100.00;102531.00;4982958;28;20451;-70
2023/04/16 08:53:05;;;;;;;15.17;11.90;;;;;;;9.97;100.00;102459.09;4983569;28;20828;-70
2023/04/16 08:55:45;;;;;;;17.70;11.60;;;;;;;10.53;100.00;102530.31;4982904;28;20507;-70
2023/04/16 08:58:15;;;;;;;15.37;11.47;;;;;;;10.45;100.00;102508.78;4983047;28;20420;-71
2023/04/16 09:00:42;;;;;;;11.87;10.50;;;;;;;10.04;100.00;102437.88;4983121;28;20438;-70
2023/04/16 09:03:08;;;;;;;12.50;10.03;;;;;;;10.30;100.00;102464.72;4983027;28;20440;-70
2023/04/16 09:05:34;;;;;;;17.03;12.13;;;;;;;10.65;100.00;102516.63;4981652;28;20418;-71
2023/04/16 09:08:00;;;;;;;16.87;12.10;;;;;;;10.50;100.00;102500.25;4982267;28;20916;-70
2023/04/16 09:10:26;;;;;;;14.47;11.00;;;;;;;10.57;100.00;102495.94;4981469;28;20480;-70
2023/04/16 09:12:55;;;;;;;14.40;10.57;;;;;;;10.68;100.00;102511.78;4983705;28;20185;-69
2023/04/16 09:15:21;;;;;;;13.10;10.70;;;;;;;10.40;100.00;102457.44;4982603;28;20457;-70
2023/04/16 09:17:46;;;;;;;16.37;9.97;;;;;;;10.77;100.00;102508.13;4965363;28;20499;-70
2023/04/16 09:20:12;;;;;;;13.73;11.27;;;;;;;10.59;100.00;102478.69;4964715;28;20232;-70
2023/04/16 09:22:41;;;;;;;15.33;12.83;;;;;;;10.74;100.00;102519.19;4981925;28;20252;-69
2023/04/16 09:25:07;;;;;;;16.97;12.03;;;;;;;10.73;100.00;102511.28;4982425;28;20249;-70
2023/04/16 09:27:32;;;;;;;13.00;10.70;;;;;;;10.92;100.00;102534.38;4981644;28;21245;-69
2023/04/16 09:29:58;;;;;;;13.50;10.73;;;;;;;10.94;100.00;102535.09;4983360;28;20543;-70
2023/04/16 09:32:26;;;;;;;16.00;11.50;;;;;;;10.98;100.00;102539.13;4983619;28;20196;-71
2023/04/16 09:35:01;;;;;;;12.10;10.07;;;;;;;10.92;100.00;102539.75;4982703;28;20198;-70
2023/04/16 09:37:30;;;;;;;18.47;11.23;;;;;;;10.96;100.00;102546.47;4981245;28;20437;-70
2023/04/16 09:40:02;;;;;;;13.10;10.43;;;;;;;10.97;100.00;102546.34;4982571;28;20492;-69
2023/04/16 09:42:30;;;;;;;13.90;10.30;;;;;;;10.92;100.00;102554.03;4981830;28;20425;-70
2023/04/16 09:44:56;;;;;;;12.87;10.07;;;;;;;10.84;100.00;102527.97;4981058;28;21031;-70
2023/04/16 09:47:23;;;;;;;13.53;10.93;;;;;;;10.65;100.00;102479.06;4982245;28;20459;-70
2023/04/16 09:49:49;;;;;;;14.50;10.00;;;;;;;10.44;100.00;102440.00;4980384;28;20456;-69
2023/04/16 09:52:16;;;;;;;14.23;11.20;;;;;;;11.09;100.00;102560.31;4982087;28;20441;-70
2023/04/16 09:54:48;;;;;;;16.90;11.90;;;;;;;11.05;100.00;102564.31;4981729;28;20217;-69
2023/04/16 09:57:21;;;;;;;13.57;10.87;;;;;;;11.09;100.00;102561.16;4981982;28;20433;-70
2023/04/16 10:00:10;;;;;;;15.63;11.03;;;;;;;11.15;100.00;102564.22;4983320;28;20932;-70
2023/04/16 10:02:40;;;;;;;14.00;9.73;;;;;;;11.21;100.00;102555.50;4983465;28;20506;-70
2023/04/16 10:05:06;;;;;;;13.67;11.00;;;;;;;10.82;100.00;102516.56;4981094;28;20424;-70
2023/04/16 10:07:35;;;;;;;15.57;10.57;;;;;;;11.09;100.00;102566.53;4980864;28;20433;-70
2023/04/16 10:10:02;;;;;;;12.83;11.43;;;;;;;11.15;100.00;102569.59;4982025;28;20203;-70
2023/04/16 10:12:29;;;;;;;11.10;9.40;;;;;;;11.20;100.00;102567.28;4964958;28;20437;-70
2023/04/16 10:14:55;;;;;;;10.10;8.63;;;;;;;11.22;100.00;102566.06;4981266;28;20472;-70
2023/04/16 10:17:20;;;;;;;11.50;9.57;;;;;;;11.17;100.00;102548.78;4982045;28;21080;-70
2023/04/16 10:19:46;;;;;;;10.87;9.70;;;;;;;11.26;100.00;102566.63;4982239;28;20213;-70
2023/04/16 10:22:12;;;;;;;13.30;9.40;;;;;;;11.31;100.00;102567.81;4982205;28;20710;-70
2023/04/16 10:24:39;;;;;;;11.83;9.40;;;;;;;11.15;100.00;102534.66;4980750;28;20541;-70
2023/04/16 10:27:05;;;;;;;15.17;10.13;;;;;;;11.36;100.00;102563.78;4981450;28;20802;-69
2023/04/16 10:29:32;;;;;;;13.07;9.23;;;;;;;11.28;100.00;102560.09;4980961;28;20462;-70
2023/04/16 10:31:58;;;;;;;14.70;9.57;;;;;;;11.36;100.00;102567.31;4982099;28;20185;-70
2023/04/16 10:34:24;;;;;;;10.10;8.50;;;;;;;11.41;100.00;102562.31;4981137;28;20519;-70
2023/04/16 10:36:53;;;;;;;12.10;9.87;;;;;;;11.44;100.00;102566.53;4981182;28;20931;-69
2023/04/16 10:39:27;;;;;;;12.13;8.70;;;;;;;11.49;100.00;102562.34;4963423;28;20453;-70
2023/04/16 10:42:11;;;;;;;28.80;12.77;;;;;;;11.40;100.00;102555.25;4982504;28;20832;-70
2023/04/16 10:44:38;;;;;;;15.90;10.37;;;;;;;11.40;100.00;102565.13;4979223;28;20435;-70
2023/04/16 10:47:10;;;;;;;13.37;10.60;;;;;;;11.37;100.00;102539.47;4981125;28;20817;-69
2023/04/16 10:49:36;;;;;;;17.17;10.97;;;;;;;11.16;100.00;102504.94;4980234;28;20477;-70
2023/04/16 10:52:10;;;;;;;12.33;9.63;;;;;;;11.44;100.00;102555.78;4981443;28;20422;-70
2023/04/16 10:54:35;;;;;;;19.10;11.17;;;;;;;11.53;100.00;102563.69;4980172;28;20552;-70
2023/04/16 10:57:06;;;;;;;16.80;11.10;;;;;;;11.58;100.00;102570.44;4982100;28;20438;-70
2023/04/16 10:59:34;;;;;;;17.30;10.90;;;;;;;11.54;100.00;102578.81;4981758;28;20213;-70
2023/04/16 11:02:01;;;;;;;17.60;11.97;;;;;;;11.50;100.00;102566.69;4981325;28;20429;-69